createdAt,value
2022-09-05T00:00:26.771Z,80.31
2022-09-05T00:01:53.559Z,81.40
2022-09-05T00:03:21.751Z,81.20
2022-09-05T00:04:51.208Z,76.37
2022-09-05T00:06:13.642Z,85.06
2022-09-05T00:07:58.851Z,80.50
2022-09-05T00:08:57.970Z,85.00
2022-09-05T00:10:46.397Z,76.94
2022-09-05T00:11:50.204Z,73.93
2022-09-05T00:13:07.239Z,82.06
2022-09-05T00:14:56.164Z,85.81
2022-09-05T00:15:36.920Z,92.62
2022-09-05T00:17:01.832Z,91.00
2022-09-05T00:24:17.472Z,84.62
2022-09-05T00:24:22.491Z,92.00
2022-09-05T00:24:26.449Z,87.06
2022-09-05T00:24:27.646Z,84.87
2022-09-05T00:24:27.840Z,89.56
2022-09-05T00:25:14.319Z,89.87
2022-09-05T00:26:16.818Z,87.06
2022-09-05T00:27:55.588Z,92.94
2022-09-05T00:29:47.798Z,87.50
2022-09-05T00:31:08.756Z,84.31
2022-09-05T00:31:55.254Z,83.12
2022-09-05T00:33:16.786Z,85.62
2022-09-05T00:34:47.108Z,85.31
2022-09-05T00:35:53.834Z,85.94
2022-09-05T00:36:58.114Z,80.25
2022-09-05T00:38:14.008Z,85.94
2022-09-05T00:39:21.109Z,87.00
2022-09-05T00:40:31.192Z,83.25
2022-09-05T00:41:35.532Z,86.56
2022-09-05T00:42:40.024Z,86.94
2022-09-05T00:43:52.029Z,85.19
2022-09-05T00:45:01.726Z,87.12
2022-09-05T00:46:20.603Z,85.06
2022-09-05T00:47:48.719Z,85.69
2022-09-05T00:49:20.103Z,86.81
2022-09-05T00:50:30.088Z,85.56
2022-09-05T00:51:51.878Z,83.06
2022-09-05T00:53:06.967Z,84.06
2022-09-05T00:54:41.196Z,83.31
2022-09-05T00:55:54.499Z,83.62
2022-09-05T00:57:25.488Z,91.19
2022-09-05T00:58:41.536Z,88.12
2022-09-05T01:00:16.989Z,93.06
2022-09-05T01:01:52.540Z,81.25
2022-09-05T01:03:17.653Z,90.75
2022-09-05T01:04:30.647Z,85.25
2022-09-05T01:05:57.198Z,80.38
2022-09-05T01:07:20.520Z,90.38
2022-09-05T01:08:33.112Z,91.87
2022-09-05T01:09:48.967Z,86.25
2022-09-05T01:11:04.871Z,89.33
2022-09-05T01:12:31.008Z,80.00
2022-09-05T01:13:37.988Z,84.56
2022-09-05T01:14:50.846Z,81.44
2022-09-05T01:16:03.771Z,79.87
2022-09-05T01:17:21.586Z,79.20
2022-09-05T01:18:52.010Z,82.13
2022-09-05T01:20:19.031Z,80.00
2022-09-05T01:21:34.912Z,79.19
2022-09-05T01:23:00.287Z,75.87
2022-09-05T01:24:14.849Z,77.56
2022-09-05T01:25:47.010Z,78.31
2022-09-05T01:27:25.522Z,78.31
2022-09-05T01:29:16.292Z,69.94
2022-09-05T01:29:53.256Z,74.00
2022-09-05T01:31:27.906Z,65.31
2022-09-05T01:33:06.580Z,71.19
2022-09-05T01:34:32.094Z,70.19
2022-09-05T01:36:01.972Z,75.75
2022-09-05T01:37:34.454Z,75.69
2022-09-05T01:39:13.219Z,73.06
2022-09-05T01:40:14.574Z,73.25
2022-09-05T01:41:18.383Z,66.87
2022-09-05T01:42:45.470Z,75.75
2022-09-05T01:44:12.025Z,67.94
2022-09-05T01:45:29.569Z,70.87
2022-09-05T01:46:54.632Z,73.25
2022-09-05T01:48:08.183Z,74.94
2022-09-05T01:49:19.294Z,73.00
2022-09-05T01:50:38.346Z,71.44
2022-09-05T01:51:57.053Z,70.19
2022-09-05T01:53:21.775Z,73.19
2022-09-05T01:54:45.033Z,74.56
2022-09-05T01:56:11.352Z,75.75
2022-09-05T01:57:19.525Z,72.69
2022-09-05T01:58:44.296Z,77.31
2022-09-05T01:59:54.023Z,74.37
2022-09-05T02:01:25.434Z,77.94
2022-09-05T02:02:36.769Z,79.06
2022-09-05T02:04:07.209Z,78.81
2022-09-05T02:05:14.250Z,76.94
2022-09-05T02:06:29.981Z,81.87
2022-09-05T02:07:36.964Z,74.25
2022-09-05T02:09:11.035Z,73.50
2022-09-05T02:10:39.578Z,74.94
2022-09-05T02:11:49.556Z,74.50
2022-09-05T02:13:02.272Z,73.94
2022-09-05T02:14:11.018Z,72.69
2022-09-05T02:15:25.681Z,70.19
2022-09-05T02:16:38.873Z,75.37
2022-09-05T02:17:50.653Z,77.37
2022-09-05T02:19:03.458Z,72.19
2022-09-05T02:20:20.808Z,71.25
2022-09-05T02:21:55.656Z,72.12
2022-09-05T02:22:46.176Z,73.62
2022-09-05T02:24:05.218Z,67.25
2022-09-05T02:25:32.129Z,69.06
2022-09-05T02:26:44.975Z,73.87
2022-09-05T02:28:04.440Z,72.62
2022-09-05T02:29:00.682Z,71.81
2022-09-05T02:30:22.317Z,69.31
2022-09-05T02:31:43.288Z,76.87
2022-09-05T02:33:06.852Z,67.25
2022-09-05T02:34:22.306Z,68.31
2022-09-05T02:35:35.323Z,71.50
2022-09-05T02:36:57.353Z,68.94
2022-09-05T02:39:54.935Z,70.56
2022-09-05T02:44:54.275Z,76.19
2022-09-05T02:45:10.555Z,75.12
2022-09-05T02:45:11.754Z,74.50
2022-09-05T02:45:14.075Z,73.25
2022-09-05T02:45:20.600Z,76.25
2022-09-05T02:45:58.904Z,77.06
2022-09-05T02:47:15.038Z,71.62
2022-09-05T02:48:33.149Z,72.00
2022-09-05T02:56:23.244Z,72.25
2022-09-05T02:57:25.576Z,74.69
2022-09-05T02:57:25.626Z,71.19
2022-09-05T02:57:34.740Z,71.44
2022-09-05T02:57:35.596Z,75.94
2022-09-05T02:57:36.373Z,73.12
2022-09-05T02:59:10.138Z,74.31
2022-09-05T03:00:19.838Z,77.56
2022-09-05T03:02:05.680Z,80.00
2022-09-05T03:03:14.877Z,71.75
2022-09-05T03:04:39.934Z,71.69
2022-09-05T03:05:52.032Z,82.12
2022-09-05T03:07:02.066Z,78.25
2022-09-05T03:08:28.191Z,74.94
2022-09-05T03:09:50.381Z,72.06
2022-09-05T03:11:23.000Z,74.06
2022-09-05T03:12:45.024Z,72.87
2022-09-05T03:14:20.824Z,69.94
2022-09-05T03:16:04.726Z,73.50
2022-09-05T03:17:27.295Z,72.87
2022-09-05T03:18:53.711Z,78.80
2022-09-05T03:20:28.110Z,75.44
2022-09-05T03:22:08.171Z,74.31
2022-09-05T03:23:38.760Z,77.31
2022-09-05T03:25:07.802Z,85.06
2022-09-05T03:26:33.602Z,85.75
2022-09-05T03:28:12.956Z,71.62
2022-09-05T03:29:45.076Z,71.00
2022-09-05T03:30:54.691Z,74.87
2022-09-05T03:32:10.225Z,64.44
2022-09-05T03:33:41.211Z,77.12
2022-09-05T03:35:12.187Z,80.53
2022-09-05T03:36:45.836Z,68.44
2022-09-05T03:38:10.074Z,76.00
2022-09-05T03:39:33.807Z,69.37
2022-09-05T03:41:03.146Z,78.12
2022-09-05T03:42:36.524Z,77.87
2022-09-05T03:43:58.621Z,77.12
2022-09-05T03:45:29.836Z,79.37
2022-09-05T03:46:44.720Z,77.81
2022-09-05T03:48:53.720Z,79.19
2022-09-05T03:56:30.983Z,82.47
2022-09-05T03:57:06.485Z,73.06
2022-09-05T03:57:06.608Z,79.37
2022-09-05T03:57:18.607Z,68.87
2022-09-05T03:57:22.569Z,68.87
2022-09-05T03:57:25.623Z,75.81
2022-09-05T03:58:41.982Z,71.75
2022-09-05T03:59:53.460Z,77.00
2022-09-05T04:01:11.008Z,76.81
2022-09-05T04:06:22.726Z,80.93
2022-09-05T04:08:08.802Z,71.53
2022-09-05T04:08:16.080Z,73.53
2022-09-05T04:08:17.536Z,72.44
2022-09-05T04:08:18.067Z,73.75
2022-09-05T04:08:43.309Z,77.06
2022-09-05T04:09:59.657Z,75.75
2022-09-05T04:11:09.887Z,75.62
2022-09-05T04:12:16.967Z,75.27
2022-09-05T04:13:26.424Z,78.44
2022-09-05T04:14:48.407Z,79.06
2022-09-05T04:16:01.437Z,74.53
2022-09-05T04:17:10.851Z,78.60
2022-09-05T04:18:32.862Z,81.73
2022-09-05T04:19:43.659Z,78.20
2022-09-05T04:21:01.592Z,75.80
2022-09-05T04:22:33.819Z,79.69
2022-09-05T04:24:01.080Z,76.27
2022-09-05T04:25:36.364Z,79.33
2022-09-05T04:27:01.066Z,77.12
2022-09-05T04:28:19.790Z,80.31
2022-09-05T04:29:59.551Z,77.67
2022-09-05T04:31:26.060Z,74.87
2022-09-05T04:33:06.172Z,75.80
2022-09-05T04:34:31.255Z,76.06
2022-09-05T04:35:57.779Z,77.19
2022-09-05T04:37:05.216Z,76.62
2022-09-05T04:38:17.754Z,80.60
2022-09-05T04:39:24.795Z,84.69
2022-09-05T04:40:43.855Z,80.47
2022-09-05T04:41:52.455Z,78.27
2022-09-05T04:42:59.918Z,77.25
2022-09-05T04:44:20.085Z,78.37
2022-09-05T04:45:26.881Z,76.00
2022-09-05T04:46:48.308Z,78.56
2022-09-05T04:47:52.936Z,82.50
2022-09-05T04:49:13.527Z,81.60
2022-09-05T04:50:23.691Z,85.20
2022-09-05T04:52:00.082Z,87.81
2022-09-05T04:53:21.069Z,75.69
2022-09-05T04:54:34.004Z,82.60
2022-09-05T04:55:50.764Z,83.75
2022-09-05T04:56:55.312Z,84.87
2022-09-05T05:00:06.205Z,88.00
2022-09-05T05:05:44.995Z,80.12
2022-09-05T05:06:04.195Z,87.19
2022-09-05T05:06:09.418Z,93.62
2022-09-05T05:06:09.428Z,92.94
2022-09-05T05:06:15.115Z,92.81
2022-09-05T05:06:17.345Z,81.80
2022-09-05T05:07:09.842Z,102.12
2022-09-05T05:08:17.203Z,97.12
2022-09-05T05:09:29.956Z,103.69
2022-09-05T05:14:07.673Z,95.12
2022-09-05T05:17:22.302Z,114.50
2022-09-05T05:17:56.381Z,113.44
2022-09-05T05:18:11.491Z,95.25
2022-09-05T05:18:13.758Z,103.44
2022-09-05T05:18:13.922Z,102.62
2022-09-05T05:18:39.448Z,106.37
2022-09-05T05:19:36.364Z,106.94
2022-09-05T05:20:46.516Z,104.44
2022-09-05T05:21:53.976Z,110.00
2022-09-05T05:23:07.393Z,109.19
2022-09-05T05:24:21.813Z,109.87
2022-09-05T05:25:27.263Z,108.06
2022-09-05T05:26:59.220Z,104.06
2022-09-05T05:28:22.795Z,104.69
2022-09-05T05:29:23.471Z,104.87
2022-09-05T05:30:30.835Z,110.12
2022-09-05T05:31:49.890Z,105.94
2022-09-05T05:32:55.603Z,115.69
2022-09-05T05:34:07.520Z,114.81
2022-09-05T05:35:11.232Z,112.75
2022-09-05T05:36:18.749Z,113.00
2022-09-05T05:37:37.672Z,117.44
2022-09-05T05:38:47.662Z,111.62
2022-09-05T05:40:11.765Z,114.06
2022-09-05T05:41:18.861Z,114.06
2022-09-05T05:42:24.497Z,119.31
2022-09-05T05:43:34.165Z,111.00
2022-09-05T05:44:39.128Z,113.62
2022-09-05T05:45:45.074Z,117.87
2022-09-05T05:47:02.894Z,118.37
2022-09-05T05:48:09.371Z,115.69
2022-09-05T05:49:34.496Z,115.37
2022-09-05T05:50:59.822Z,110.44
2022-09-05T05:52:33.397Z,110.94
2022-09-05T05:53:42.929Z,123.38
2022-09-05T05:55:11.268Z,115.81
2022-09-05T05:56:52.976Z,107.87
2022-09-05T05:58:15.934Z,98.60
2022-09-05T05:59:34.765Z,107.87
2022-09-05T06:00:56.933Z,108.37
2022-09-05T06:02:25.122Z,113.25
2022-09-05T06:03:38.369Z,110.19
2022-09-05T06:04:51.475Z,108.00
2022-09-05T06:06:31.332Z,107.87
2022-09-05T06:10:49.917Z,117.56
2022-09-05T06:14:55.456Z,111.12
2022-09-05T06:14:55.913Z,124.50
2022-09-05T06:15:02.502Z,114.37
2022-09-05T06:15:02.807Z,107.12
2022-09-05T06:15:22.165Z,114.37
2022-09-05T06:16:29.049Z,116.56
2022-09-05T06:17:47.879Z,113.81
2022-09-05T06:19:09.980Z,103.38
2022-09-05T06:22:07.464Z,109.06
2022-09-05T06:22:08.745Z,94.25
2022-09-05T06:23:36.694Z,89.37
2022-09-05T06:24:35.827Z,66.56
2022-09-05T06:26:15.673Z,59.81
2022-09-05T06:27:28.352Z,57.13
2022-09-05T06:28:59.333Z,41.63
2022-09-05T06:30:18.368Z,56.06
2022-09-05T06:31:37.251Z,39.19
2022-09-05T06:33:12.978Z,26.25
2022-09-05T06:34:42.259Z,22.25
2022-09-05T06:36:04.132Z,22.81
2022-09-05T06:37:13.187Z,31.19
2022-09-05T06:38:39.904Z,26.81
2022-09-05T06:40:03.523Z,26.37
2022-09-05T06:41:22.214Z,26.75
2022-09-05T06:42:49.948Z,30.56
2022-09-05T06:44:02.526Z,27.75
2022-09-05T06:45:29.060Z,31.81
2022-09-05T06:46:54.332Z,34.50
2022-09-05T06:47:45.449Z,36.88
2022-09-05T06:49:29.965Z,28.62
2022-09-05T06:50:24.574Z,31.44
2022-09-05T06:51:44.118Z,31.31
2022-09-05T06:53:19.556Z,29.69
2022-09-05T06:54:28.839Z,33.73
2022-09-05T06:55:37.513Z,34.00
2022-09-05T06:56:54.407Z,39.69
2022-09-05T06:58:07.288Z,44.31
2022-09-05T06:59:30.483Z,50.56
2022-09-05T07:00:56.716Z,59.13
2022-09-05T07:02:58.132Z,64.44
2022-09-05T07:03:43.969Z,72.56
2022-09-05T07:05:24.071Z,82.00
2022-09-05T07:06:20.578Z,71.87
2022-09-05T07:07:33.501Z,71.56
2022-09-05T07:08:52.766Z,73.94
2022-09-05T07:10:16.744Z,74.94
2022-09-05T07:11:23.110Z,70.87
2022-09-05T07:12:37.379Z,71.50
2022-09-05T07:13:59.505Z,86.56
2022-09-05T07:15:28.112Z,75.81
2022-09-05T07:16:39.341Z,84.87
2022-09-05T07:18:09.447Z,78.69
2022-09-05T07:19:17.401Z,72.73
2022-09-05T07:20:28.602Z,79.69
2022-09-05T07:21:44.433Z,79.75
2022-09-05T07:22:57.145Z,76.19
2022-09-05T07:24:11.508Z,100.06
2022-09-05T07:25:18.864Z,82.75
2022-09-05T07:26:49.598Z,80.94
2022-09-05T07:28:25.986Z,84.25
2022-09-05T07:28:57.495Z,90.00
2022-09-05T07:30:05.770Z,109.00
2022-09-05T07:31:12.868Z,110.56
2022-09-05T07:32:24.208Z,119.00
2022-09-05T07:33:28.346Z,108.07
2022-09-05T07:34:37.905Z,127.75
2022-09-05T07:35:43.716Z,130.31
2022-09-05T07:36:51.324Z,126.60
2022-09-05T07:38:01.408Z,130.19
2022-09-05T07:39:27.362Z,124.53
2022-09-05T07:40:26.034Z,130.50
2022-09-05T07:41:32.557Z,141.25
2022-09-05T07:42:43.668Z,129.50
2022-09-05T07:43:52.385Z,128.00
2022-09-05T07:45:01.459Z,127.47
2022-09-05T07:46:20.954Z,125.87
2022-09-05T07:47:28.045Z,137.47
2022-09-05T07:48:35.744Z,128.20
2022-09-05T07:50:45.813Z,128.27
2022-09-05T07:55:37.859Z,133.60
2022-09-05T07:56:49.106Z,132.31
2022-09-05T07:56:58.897Z,141.75
2022-09-05T07:56:59.387Z,138.47
2022-09-05T07:57:01.149Z,135.73
2022-09-05T07:58:15.092Z,137.44
2022-09-05T07:59:22.168Z,137.44
2022-09-05T08:00:29.811Z,138.13
2022-09-05T08:01:39.632Z,138.73
2022-09-05T08:02:47.665Z,129.87
2022-09-05T08:04:02.417Z,129.07
2022-09-05T08:05:04.954Z,131.50
2022-09-05T08:06:34.347Z,142.56
2022-09-05T08:07:48.972Z,136.07
2022-09-05T08:09:00.439Z,137.75
2022-09-05T08:10:06.350Z,135.80
2022-09-05T08:11:24.878Z,138.62
2022-09-05T08:12:28.409Z,123.19
2022-09-05T08:13:46.285Z,128.67
2022-09-05T08:15:23.323Z,120.50
2022-09-05T08:16:28.169Z,130.33
2022-09-05T08:17:35.351Z,140.19
2022-09-05T08:19:07.484Z,117.13
2022-09-05T08:20:37.293Z,134.87
2022-09-05T08:21:47.946Z,120.81
2022-09-05T08:23:00.759Z,125.75
2022-09-05T08:24:24.308Z,114.00
2022-09-05T08:25:56.978Z,115.88
2022-09-05T08:26:46.771Z,112.33
2022-09-05T08:28:18.855Z,116.50
2022-09-05T08:29:37.731Z,123.69
2022-09-05T08:30:47.304Z,101.80
2022-09-05T08:32:16.372Z,105.50
2022-09-05T08:33:26.594Z,111.19
2022-09-05T08:34:44.986Z,100.69
2022-09-05T08:35:59.393Z,85.62
2022-09-05T08:37:04.371Z,99.75
2022-09-05T08:38:19.353Z,92.31
2022-09-05T08:39:26.566Z,85.44
2022-09-05T08:40:43.991Z,89.27
2022-09-05T08:42:08.980Z,86.33
2022-09-05T08:46:37.587Z,74.93
2022-09-05T08:46:52.865Z,84.73
2022-09-05T08:48:09.656Z,76.44
2022-09-05T10:12:06.955Z,107.53
2022-09-05T10:13:46.209Z,123.56
2022-09-05T10:15:31.432Z,127.31
2022-09-05T10:16:34.538Z,85.56
2022-09-05T10:17:58.063Z,86.06
2022-09-05T10:21:16.382Z,58.56
2022-09-05T10:22:42.339Z,76.12
2022-09-05T10:23:58.403Z,77.06
2022-09-05T10:25:20.335Z,88.00
2022-09-05T10:26:56.614Z,80.62
2022-09-05T10:28:09.234Z,82.31
2022-09-05T10:29:38.619Z,77.94
2022-09-05T10:32:49.230Z,78.00
2022-09-05T10:34:50.679Z,78.37
2022-09-05T10:35:09.320Z,98.25
2022-09-05T10:35:16.769Z,107.00
2022-09-05T10:35:40.468Z,103.38
2022-09-05T10:36:47.633Z,101.81
2022-09-05T10:38:10.324Z,106.50
2022-09-05T10:39:26.139Z,105.50
2022-09-05T10:40:36.252Z,106.31
2022-09-05T10:41:51.914Z,117.94
2022-09-05T10:43:13.823Z,113.69
2022-09-05T10:44:44.524Z,105.12
2022-09-05T10:45:51.544Z,131.63
2022-09-05T10:47:07.302Z,125.19
2022-09-05T10:48:14.356Z,127.38
2022-09-05T10:49:21.354Z,110.19
2022-09-05T10:50:31.582Z,134.50
2022-09-05T10:51:52.003Z,132.87
2022-09-05T10:53:01.666Z,130.37
2022-09-05T10:54:26.674Z,107.19
2022-09-05T10:55:47.683Z,114.50
2022-09-05T10:57:10.563Z,93.87
2022-09-05T10:58:47.082Z,83.19
2022-09-05T11:02:16.239Z,76.56
2022-09-05T11:02:26.038Z,32.50
2022-09-05T11:02:27.235Z,71.25
2022-09-05T11:03:26.562Z,26.94
2022-09-05T11:04:49.406Z,18.44
2022-09-05T11:05:48.381Z,21.50
2022-09-05T11:07:07.014Z,24.75
2022-09-05T11:08:16.892Z,19.94
2022-09-05T11:09:41.949Z,17.44
2022-09-05T11:11:05.617Z,18.75
2022-09-05T11:12:32.197Z,17.00
2022-09-05T11:13:39.167Z,18.56
2022-09-05T11:14:55.797Z,10.63
2022-09-05T11:16:31.553Z,15.19
2022-09-05T11:17:38.653Z,15.06
2022-09-05T11:19:06.687Z,15.31
2022-09-05T11:20:36.506Z,13.88
2022-09-05T11:22:21.987Z,14.75
2022-09-05T11:23:25.578Z,13.00
2022-09-05T11:24:35.361Z,15.38
2022-09-05T11:25:41.318Z,15.94
2022-09-05T11:27:23.201Z,13.25
2022-09-05T11:27:57.437Z,16.12
2022-09-05T11:29:09.881Z,14.56
2022-09-05T11:30:29.045Z,15.38
2022-09-05T11:31:30.405Z,16.37
2022-09-05T11:38:11.828Z,12.75
2022-09-05T11:39:51.485Z,12.69
2022-09-05T11:39:53.269Z,14.38
2022-09-05T11:39:56.620Z,47.25
2022-09-05T11:40:02.600Z,15.94
2022-09-05T11:40:10.677Z,12.44
2022-09-05T11:41:05.201Z,12.31
2022-09-05T11:42:19.205Z,27.62
2022-09-05T11:44:08.446Z,31.19
2022-09-05T11:45:26.955Z,39.00
2022-09-05T11:46:53.574Z,48.06
2022-09-05T11:48:08.239Z,53.94
2022-09-05T11:49:42.343Z,70.87
2022-09-05T11:51:16.407Z,68.75
2022-09-05T11:52:38.302Z,73.06
2022-09-05T11:53:45.316Z,69.37
2022-09-05T11:55:25.278Z,80.50
2022-09-05T11:56:50.928Z,87.81
2022-09-05T11:58:27.100Z,95.69
2022-09-05T11:59:33.717Z,94.31
2022-09-05T12:01:38.200Z,90.56
2022-09-05T12:02:37.852Z,97.00
2022-09-05T12:03:59.330Z,88.00
2022-09-05T12:05:48.523Z,94.31
2022-09-05T12:06:35.523Z,100.81
2022-09-05T12:07:59.271Z,108.06
2022-09-05T12:09:07.374Z,120.44
2022-09-05T12:11:59.837Z,126.25
2022-09-05T12:13:12.620Z,112.44
2022-09-05T12:14:49.300Z,101.25
2022-09-05T12:16:07.698Z,98.06
2022-09-05T12:16:58.056Z,107.12
2022-09-05T12:18:26.343Z,97.69
2022-09-05T12:19:48.811Z,92.06
2022-09-05T12:20:58.458Z,94.44
2022-09-05T12:22:26.183Z,95.50
2022-09-05T12:24:24.779Z,78.50
2022-09-05T12:25:24.011Z,85.75
2022-09-05T12:27:38.758Z,85.80
2022-09-05T12:27:42.550Z,91.12
2022-09-05T12:29:32.630Z,70.12
2022-09-05T12:30:00.858Z,72.06
2022-09-05T12:33:32.715Z,72.69
2022-09-05T12:35:52.997Z,78.50
2022-09-05T12:36:07.820Z,79.25
2022-09-05T12:36:12.660Z,74.06
2022-09-05T12:39:40.254Z,79.94
2022-09-05T12:40:40.421Z,83.44
2022-09-05T12:40:54.997Z,77.12
2022-09-05T12:41:33.193Z,80.87
2022-09-05T12:41:41.044Z,136.25
2022-09-05T12:41:45.265Z,85.87
2022-09-05T12:43:01.760Z,67.50
2022-09-05T12:44:38.963Z,63.31
2022-09-05T12:45:45.131Z,58.69
2022-09-05T12:46:59.301Z,68.44
2022-09-05T12:48:20.138Z,60.00
2022-09-05T12:49:37.839Z,64.00
2022-09-05T12:50:57.313Z,62.07
2022-09-05T12:52:05.941Z,62.33
2022-09-05T12:53:15.645Z,97.12
2022-09-05T12:54:33.665Z,77.31
2022-09-05T12:56:12.155Z,65.53
2022-09-05T12:59:55.259Z,67.37
2022-09-05T13:02:59.400Z,63.87
2022-09-05T13:03:05.043Z,91.94
2022-09-05T13:03:09.723Z,65.25
2022-09-05T13:03:13.606Z,63.31
2022-09-05T13:03:27.032Z,64.69
2022-09-05T13:04:17.838Z,66.37
2022-09-05T13:05:23.754Z,64.62
2022-09-05T13:06:44.298Z,62.56
2022-09-05T13:07:54.184Z,47.20
2022-09-05T13:09:01.167Z,54.19
2022-09-05T13:12:39.385Z,39.33
2022-09-05T13:14:47.604Z,64.56
2022-09-05T13:14:54.123Z,49.87
2022-09-05T13:14:58.211Z,39.63
2022-09-05T13:15:22.860Z,18.12
2022-09-05T13:16:07.361Z,50.31
2022-09-05T13:17:13.379Z,44.88
2022-09-05T13:18:23.002Z,29.25
2022-09-05T13:19:30.002Z,52.06
2022-09-05T13:20:37.308Z,66.12
2022-09-05T13:21:43.918Z,67.12
2022-09-05T13:22:50.235Z,67.12
2022-09-05T13:24:02.963Z,62.31
2022-09-05T13:25:09.894Z,67.19
2022-09-05T13:26:23.527Z,69.94
2022-09-05T13:27:34.663Z,62.31
2022-09-05T13:28:51.940Z,61.25
2022-09-05T13:34:42.845Z,68.62
2022-09-05T13:37:54.208Z,66.44
2022-09-05T13:37:57.931Z,62.00
2022-09-05T13:37:59.534Z,66.87
2022-09-05T13:38:06.457Z,69.25
2022-09-05T13:38:11.030Z,63.38
2022-09-05T13:38:20.329Z,65.87
2022-09-05T13:38:48.249Z,64.44
2022-09-05T13:39:59.635Z,57.44
2022-09-05T13:41:04.164Z,60.56
2022-09-05T13:42:10.842Z,59.06
2022-09-05T13:43:17.692Z,65.19
2022-09-05T13:44:26.159Z,64.62
2022-09-05T13:45:29.976Z,66.62
2022-09-05T13:46:43.016Z,61.25
2022-09-05T13:48:06.090Z,60.50
2022-09-05T13:49:31.637Z,39.69
2022-09-05T13:50:22.078Z,63.13
2022-09-05T13:51:40.656Z,70.31
2022-09-05T13:52:59.390Z,63.94
2022-09-05T13:57:36.911Z,60.31
2022-09-05T13:58:56.490Z,62.13
2022-09-05T14:00:27.231Z,66.75
2022-09-05T14:01:19.205Z,63.00
2022-09-05T14:03:29.851Z,61.56
2022-09-05T14:03:55.888Z,61.44
2022-09-05T14:05:15.979Z,67.44
2022-09-05T14:06:46.912Z,65.44
2022-09-05T14:07:52.289Z,59.50
2022-09-05T14:10:41.066Z,66.81
2022-09-05T14:12:07.661Z,50.31
2022-09-05T14:13:29.603Z,62.25
2022-09-05T14:15:58.953Z,60.75
2022-09-05T14:18:27.714Z,61.56
2022-09-05T14:19:35.113Z,65.75
2022-09-05T14:20:58.889Z,66.80
2022-09-05T14:22:09.083Z,61.56
2022-09-05T14:23:16.209Z,64.87
2022-09-05T14:24:27.503Z,62.69
2022-09-05T14:25:31.512Z,59.07
2022-09-05T14:26:48.146Z,62.00
2022-09-05T14:27:52.592Z,62.06
2022-09-05T14:29:02.497Z,58.69
2022-09-05T14:31:03.143Z,62.31
2022-09-05T14:37:36.882Z,60.06
2022-09-05T14:37:41.234Z,59.19
2022-09-05T14:37:41.622Z,60.75
2022-09-05T14:37:54.600Z,69.12
2022-09-05T14:38:01.356Z,69.44
2022-09-05T14:38:14.825Z,63.25
2022-09-05T14:39:45.348Z,62.44
2022-09-05T14:41:15.192Z,64.75
2022-09-05T14:42:46.299Z,63.87
2022-09-05T14:43:56.744Z,62.81
2022-09-05T14:45:27.270Z,74.75
2022-09-05T14:46:45.991Z,54.31
2022-09-05T14:48:16.805Z,63.87
2022-09-05T14:49:26.853Z,67.44
2022-09-05T14:50:36.593Z,60.00
2022-09-05T14:51:43.594Z,78.44
2022-09-05T14:55:36.906Z,60.31
2022-09-05T14:58:55.318Z,63.31
2022-09-05T15:02:43.047Z,65.19
2022-09-05T15:02:49.132Z,68.12
2022-09-05T15:02:50.082Z,61.19
2022-09-05T15:02:53.584Z,63.94
2022-09-05T15:03:05.314Z,65.06
2022-09-05T15:05:19.402Z,63.06
2022-09-05T15:06:28.087Z,65.31
2022-09-05T15:07:40.824Z,61.25
2022-09-05T15:11:24.154Z,62.38
2022-09-05T15:12:14.426Z,59.38
2022-09-05T15:12:24.307Z,60.40
2022-09-05T15:12:44.169Z,57.56
2022-09-05T15:13:46.400Z,58.00
2022-09-05T15:14:56.358Z,62.13
2022-09-05T15:16:12.358Z,62.44
2022-09-05T15:17:19.312Z,64.81
2022-09-05T15:18:28.335Z,64.73
2022-09-05T15:20:05.530Z,67.27
2022-09-05T15:21:33.840Z,93.94
2022-09-05T15:22:31.415Z,71.25
2022-09-05T15:23:37.092Z,92.25
2022-09-05T15:24:41.094Z,76.19
2022-09-05T15:25:51.602Z,78.19
2022-09-05T15:26:59.334Z,88.19
2022-09-05T15:28:06.317Z,90.81
2022-09-05T15:29:14.683Z,96.31
2022-09-05T15:30:34.793Z,99.94
2022-09-05T15:31:36.490Z,80.56
2022-09-05T15:32:40.575Z,72.12
2022-09-05T15:33:44.999Z,75.75
2022-09-05T15:34:53.894Z,99.44
2022-09-05T15:36:01.949Z,75.56
2022-09-05T15:37:23.829Z,80.12
2022-09-05T15:38:56.181Z,78.25
2022-09-05T15:39:45.189Z,81.60
2022-09-05T15:41:26.877Z,71.37
2022-09-05T15:42:34.160Z,75.62
2022-09-05T15:43:55.870Z,78.19
2022-09-05T15:45:10.930Z,103.25
2022-09-05T15:46:09.290Z,103.56
2022-09-05T15:47:16.295Z,76.69
2022-09-05T15:48:22.936Z,89.00
2022-09-05T15:49:32.902Z,85.44
2022-09-05T15:50:42.952Z,83.37
2022-09-05T15:51:49.938Z,83.94
2022-09-05T15:52:56.128Z,83.37
2022-09-05T15:54:02.344Z,92.94
2022-09-05T15:56:34.093Z,100.69
2022-09-05T15:57:42.614Z,111.00
2022-09-05T15:58:55.780Z,84.13
2022-09-05T16:00:08.564Z,90.94
2022-09-05T16:01:30.270Z,87.75
2022-09-05T16:02:26.163Z,95.81
2022-09-05T16:05:36.915Z,80.81
2022-09-05T16:08:39.785Z,85.81
2022-09-05T16:10:29.081Z,98.25
2022-09-05T16:10:34.100Z,105.00
2022-09-05T16:10:38.383Z,120.13
2022-09-05T16:10:43.466Z,109.37
2022-09-05T16:11:08.367Z,112.12
2022-09-05T16:12:54.789Z,124.00
2022-09-05T16:14:22.666Z,96.37
2022-09-05T16:19:32.149Z,101.87
2022-09-05T16:23:14.288Z,107.06
2022-09-05T16:23:14.594Z,104.63
2022-09-05T16:23:24.109Z,106.12
2022-09-05T16:23:31.032Z,112.50
2022-09-05T16:23:33.825Z,108.00
2022-09-05T16:23:46.098Z,103.50
2022-09-05T16:24:58.309Z,109.44
2022-09-05T16:25:59.811Z,103.19
2022-09-05T16:27:03.580Z,105.50
2022-09-05T16:28:25.582Z,96.94
2022-09-05T16:29:32.917Z,108.81
2022-09-05T16:30:39.050Z,109.50
2022-09-05T16:32:01.192Z,120.69
2022-09-05T16:33:23.529Z,110.06
2022-09-05T16:34:35.065Z,108.69
2022-09-05T16:35:44.536Z,122.50
2022-09-05T16:37:08.614Z,122.87
2022-09-05T16:38:15.193Z,122.50
2022-09-05T16:39:24.070Z,123.94
2022-09-05T16:40:40.155Z,126.12
2022-09-05T16:41:53.237Z,124.75
2022-09-05T16:43:06.248Z,130.87
2022-09-05T16:44:16.188Z,124.00
2022-09-05T16:45:41.438Z,122.25
2022-09-05T16:46:48.478Z,122.06
2022-09-05T16:47:58.284Z,131.69
2022-09-05T16:49:11.755Z,124.69
2022-09-05T16:50:34.222Z,127.94
2022-09-05T16:51:50.220Z,122.87
2022-09-05T16:53:05.419Z,123.25
2022-09-05T16:54:32.754Z,137.00
2022-09-05T16:55:45.722Z,122.06
2022-09-05T16:57:01.734Z,134.44
2022-09-05T16:58:19.502Z,128.50
2022-09-05T16:59:29.664Z,120.31
2022-09-05T17:00:42.095Z,126.94
2022-09-05T17:02:10.512Z,123.13
2022-09-05T17:03:28.360Z,132.87
2022-09-05T17:04:31.496Z,139.81
2022-09-05T17:05:41.642Z,138.81
2022-09-05T17:07:00.415Z,142.00
2022-09-05T17:08:05.908Z,133.56
2022-09-05T17:09:21.761Z,135.25
2022-09-05T17:10:28.963Z,129.31
2022-09-05T17:11:38.143Z,131.31
2022-09-05T17:12:42.892Z,135.00
2022-09-05T17:13:55.302Z,135.75
2022-09-05T17:15:02.327Z,136.50
2022-09-05T17:16:09.835Z,134.19
2022-09-05T17:17:57.915Z,130.12
2022-09-05T17:18:27.847Z,130.87
2022-09-05T17:19:44.942Z,130.19
2022-09-05T17:20:45.017Z,128.69
2022-09-05T17:23:24.299Z,126.06
2022-09-05T17:26:55.480Z,138.88
2022-09-05T17:29:24.356Z,121.81
2022-09-05T17:29:30.888Z,129.31
2022-09-05T17:29:31.925Z,124.19
2022-09-05T17:29:33.325Z,125.62
2022-09-05T17:31:26.561Z,122.50
2022-09-05T17:32:18.957Z,124.81
2022-09-05T17:33:27.635Z,136.25
2022-09-05T17:34:49.806Z,129.63
2022-09-05T17:36:15.071Z,134.69
2022-09-05T17:37:41.203Z,135.06
2022-09-05T17:39:05.972Z,134.19
2022-09-05T17:40:22.335Z,130.94
2022-09-05T17:41:44.462Z,133.56
2022-09-05T17:43:00.439Z,131.69
2022-09-05T17:44:22.286Z,134.19
2022-09-05T17:45:30.866Z,135.63
2022-09-05T17:46:39.253Z,149.12
2022-09-05T17:47:53.071Z,135.69
2022-09-05T17:49:19.911Z,130.81
2022-09-05T17:50:18.359Z,133.19
2022-09-05T17:51:35.680Z,140.00
2022-09-05T17:53:25.897Z,127.62
2022-09-05T17:54:15.003Z,133.50
2022-09-05T17:55:19.164Z,141.94
2022-09-05T17:56:43.668Z,136.75
2022-09-05T17:57:48.973Z,142.06
2022-09-05T17:59:01.712Z,137.06
2022-09-05T18:00:32.881Z,138.06
2022-09-05T18:01:37.249Z,134.94
2022-09-05T18:03:04.887Z,130.06
2022-09-05T18:04:16.970Z,132.75
2022-09-05T18:05:49.674Z,137.62
2022-09-05T18:07:00.580Z,135.50
2022-09-05T18:07:59.448Z,127.73